createdAt,value
2023-04-19T00:00:27.170Z,3.83
2023-04-19T00:02:58.378Z,3.90
2023-04-19T00:05:27.363Z,4.60
2023-04-19T00:07:58.677Z,3.60
2023-04-19T00:10:28.692Z,5.50
2023-04-19T00:12:57.603Z,4.53
2023-04-19T00:15:26.149Z,4.10
2023-04-19T00:18:04.833Z,4.43
2023-04-19T00:20:33.888Z,3.90
2023-04-19T00:23:02.255Z,4.13
2023-04-19T00:25:32.861Z,3.80
2023-04-19T00:28:01.470Z,4.30
2023-04-19T00:30:29.889Z,4.57
2023-04-19T00:33:12.827Z,4.43
2023-04-19T00:35:42.310Z,4.33
2023-04-19T00:38:10.677Z,4.63
2023-04-19T00:40:40.516Z,4.93
2023-04-19T00:43:08.898Z,5.23
2023-04-19T00:45:37.980Z,5.13
2023-04-19T00:48:06.992Z,4.37
2023-04-19T00:50:36.138Z,5.50
2023-04-19T00:53:04.698Z,6.10
2023-04-19T00:55:33.145Z,5.50
2023-04-19T00:58:12.828Z,5.60
2023-04-19T01:00:41.481Z,5.03
2023-04-19T01:03:10.126Z,5.43
2023-04-19T01:05:38.651Z,5.30
2023-04-19T01:08:13.331Z,5.20
2023-04-19T01:10:41.708Z,8.57
2023-04-19T01:13:10.071Z,6.10
2023-04-19T01:15:39.992Z,5.93
2023-04-19T01:18:08.395Z,7.20
2023-04-19T01:20:36.826Z,7.97
2023-04-19T01:23:06.800Z,5.50
2023-04-19T01:25:35.153Z,6.57
2023-04-19T01:28:03.522Z,6.00
2023-04-19T01:30:31.945Z,6.67
2023-04-19T01:33:00.431Z,6.63
2023-04-19T01:35:28.808Z,6.33
2023-04-19T01:37:59.205Z,6.60
2023-04-19T01:40:29.276Z,6.07
2023-04-19T01:42:58.541Z,6.23
2023-04-19T01:45:27.069Z,8.87
2023-04-19T01:47:57.074Z,7.80
2023-04-19T01:50:25.447Z,7.33
2023-04-19T01:52:53.924Z,8.27
2023-04-19T01:55:22.326Z,6.43
2023-04-19T01:57:54.609Z,6.40
2023-04-19T02:00:23.636Z,7.57
2023-04-19T02:02:52.167Z,6.30
2023-04-19T02:05:21.169Z,6.60
2023-04-19T02:07:49.525Z,6.80
2023-04-19T02:10:17.963Z,5.67
2023-04-19T02:12:46.413Z,7.10
2023-04-19T02:15:26.130Z,8.43
2023-04-19T02:18:06.793Z,7.17
2023-04-19T02:20:35.322Z,6.27
2023-04-19T02:23:03.730Z,5.57
2023-04-19T02:25:32.234Z,8.10
2023-04-19T02:28:00.581Z,7.13
2023-04-19T02:30:30.260Z,7.13
2023-04-19T02:33:00.030Z,5.67
2023-04-19T02:35:28.507Z,6.30
2023-04-19T02:37:59.266Z,6.47
2023-04-19T02:40:27.620Z,10.03
2023-04-19T02:42:55.970Z,6.53
2023-04-19T02:45:24.505Z,6.60
2023-04-19T02:47:54.252Z,7.13
2023-04-19T02:50:22.907Z,6.63
2023-04-19T02:52:54.671Z,12.30
2023-04-19T02:55:23.334Z,6.87
2023-04-19T02:57:51.974Z,7.53
2023-04-19T03:00:20.647Z,6.80
2023-04-19T03:02:49.108Z,7.10
2023-04-19T03:05:19.159Z,7.23
2023-04-19T03:07:48.285Z,6.10
2023-04-19T03:10:17.011Z,6.73
2023-04-19T03:12:47.183Z,8.30
2023-04-19T03:15:16.162Z,7.03
2023-04-19T03:17:44.584Z,7.53
2023-04-19T03:20:13.402Z,10.93
2023-04-19T03:22:43.256Z,7.80
2023-04-19T03:25:13.460Z,7.83
2023-04-19T03:27:41.829Z,8.87
2023-04-19T03:30:11.570Z,7.93
2023-04-19T03:32:40.240Z,12.03
2023-04-19T03:35:09.358Z,12.27
2023-04-19T03:37:38.118Z,15.67
2023-04-19T03:40:09.127Z,12.60
2023-04-19T03:42:37.610Z,9.50
2023-04-19T03:45:06.739Z,14.30
2023-04-19T03:47:35.074Z,11.40
2023-04-19T03:50:03.523Z,10.67
2023-04-19T03:52:31.794Z,9.43
2023-04-19T03:55:00.386Z,10.90
2023-04-19T03:57:30.180Z,9.50
2023-04-19T04:00:01.335Z,13.77
2023-04-19T04:02:29.906Z,11.33
2023-04-19T04:04:59.257Z,10.90
2023-04-19T04:07:27.695Z,11.77
2023-04-19T04:09:56.206Z,10.03
2023-04-19T04:12:24.548Z,10.60
2023-04-19T04:14:54.281Z,8.17
2023-04-19T04:17:24.374Z,9.30
2023-04-19T04:19:53.005Z,9.90
2023-04-19T04:22:21.822Z,10.43
2023-04-19T04:24:50.279Z,9.60
2023-04-19T04:27:21.104Z,10.47
2023-04-19T04:29:49.554Z,9.23
2023-04-19T04:32:23.212Z,9.30
2023-04-19T04:34:52.002Z,9.30
2023-04-19T04:37:20.874Z,11.00
2023-04-19T04:39:49.324Z,11.70
2023-04-19T04:42:17.663Z,12.93
2023-04-19T04:44:47.345Z,14.53
2023-04-19T04:47:16.029Z,9.73
2023-04-19T04:49:45.821Z,10.77
2023-04-19T04:52:14.142Z,10.77
2023-04-19T04:54:42.568Z,9.57
2023-04-19T04:57:10.920Z,10.40
2023-04-19T04:59:39.263Z,11.60
2023-04-19T05:02:07.685Z,13.73
2023-04-19T05:04:36.121Z,10.30
2023-04-19T05:07:07.053Z,10.60
2023-04-19T05:09:35.523Z,10.03
2023-04-19T05:12:03.867Z,12.10
2023-04-19T05:14:32.209Z,10.53
2023-04-19T05:17:02.634Z,12.20
2023-04-19T05:19:30.948Z,10.33
2023-04-19T05:21:59.704Z,10.67
2023-04-19T05:24:29.431Z,8.77
2023-04-19T05:27:02.798Z,11.33
2023-04-19T05:29:31.198Z,11.60
2023-04-19T05:32:01.852Z,11.23
2023-04-19T05:34:30.424Z,12.83
2023-04-19T05:37:00.475Z,16.07
2023-04-19T05:39:30.249Z,13.90
2023-04-19T05:41:59.867Z,12.87
2023-04-19T05:44:28.189Z,12.27
2023-04-19T05:46:56.494Z,13.03
2023-04-19T05:49:25.373Z,14.30
2023-04-19T05:51:55.463Z,16.10
2023-04-19T05:54:23.996Z,17.30
2023-04-19T05:56:53.857Z,13.70
2023-04-19T05:59:22.401Z,12.77
2023-04-19T06:01:50.989Z,15.53
2023-04-19T06:04:19.970Z,14.80
2023-04-19T06:06:48.559Z,13.87
2023-04-19T06:09:18.158Z,14.93
2023-04-19T06:11:50.891Z,14.73
2023-04-19T06:14:21.514Z,14.87
2023-04-19T06:16:49.887Z,13.20
2023-04-19T06:19:18.211Z,14.53
2023-04-19T06:21:47.730Z,18.10
2023-04-19T06:24:16.484Z,15.47
2023-04-19T06:26:45.036Z,14.57
2023-04-19T06:29:15.580Z,14.40
2023-04-19T06:31:46.305Z,17.90
2023-04-19T06:34:14.779Z,16.87
2023-04-19T06:36:43.228Z,13.33
2023-04-19T06:39:11.593Z,14.57
2023-04-19T06:41:40.079Z,13.00
2023-04-19T06:44:08.537Z,13.10
2023-04-19T06:46:36.936Z,15.13
2023-04-19T06:49:06.820Z,15.07
2023-04-19T06:51:35.351Z,17.50
2023-04-19T06:54:03.737Z,18.07
2023-04-19T06:56:42.248Z,17.57
2023-04-19T06:59:10.717Z,14.93
2023-04-19T07:01:39.610Z,14.07
2023-04-19T07:04:10.144Z,15.43
2023-04-19T07:06:39.661Z,14.70
2023-04-19T07:09:09.117Z,22.73
2023-04-19T07:11:37.560Z,16.17
2023-04-19T07:14:06.009Z,17.10
2023-04-19T07:16:34.564Z,17.43
2023-04-19T07:19:03.664Z,16.27
2023-04-19T07:21:35.083Z,20.60
2023-04-19T07:24:07.471Z,17.70
2023-04-19T07:26:36.100Z,17.60
2023-04-19T07:29:05.853Z,20.87
2023-04-19T07:31:34.318Z,19.53
2023-04-19T07:34:05.676Z,18.27
2023-04-19T07:36:37.112Z,17.63
2023-04-19T07:39:05.850Z,16.63
2023-04-19T07:41:35.958Z,14.90
2023-04-19T07:44:05.977Z,18.10
2023-04-19T07:46:34.376Z,19.50
2023-04-19T07:49:04.595Z,18.60
2023-04-19T07:51:33.095Z,19.83
2023-04-19T07:54:05.182Z,16.17
2023-04-19T07:56:34.614Z,18.40
2023-04-19T07:59:08.434Z,19.37
2023-04-19T08:01:38.106Z,16.03
2023-04-19T08:04:07.087Z,17.90
2023-04-19T08:06:37.910Z,16.90
2023-04-19T08:09:07.923Z,18.83
2023-04-19T08:11:36.355Z,18.87
2023-04-19T08:14:28.281Z,20.13
2023-04-19T08:19:24.545Z,18.10
2023-04-19T08:21:53.078Z,17.87
2023-04-19T08:24:22.812Z,27.53
2023-04-19T08:26:54.651Z,28.23
2023-04-19T08:29:23.514Z,28.17
2023-04-19T08:31:52.231Z,19.07
2023-04-19T08:34:21.119Z,24.27
2023-04-19T08:37:00.129Z,25.43
2023-04-19T08:39:34.778Z,19.07
2023-04-19T08:42:11.027Z,25.37
2023-04-19T08:47:29.641Z,19.63
2023-04-19T08:50:14.048Z,24.40
2023-04-19T08:52:54.793Z,17.57
2023-04-19T08:55:29.524Z,15.67
2023-04-19T08:57:58.642Z,20.83
2023-04-19T09:00:31.415Z,29.90
2023-04-19T09:03:00.216Z,21.77
2023-04-19T09:05:29.164Z,14.53
2023-04-19T09:08:25.007Z,17.23
2023-04-19T09:10:59.308Z,25.73
2023-04-19T09:13:29.292Z,21.23
2023-04-19T09:15:59.554Z,21.50
2023-04-19T09:18:30.712Z,27.07
2023-04-19T09:21:01.106Z,33.27
2023-04-19T09:23:30.051Z,30.93
2023-04-19T09:28:32.784Z,19.93
2023-04-19T09:31:33.058Z,20.37
2023-04-19T09:34:14.106Z,18.47
2023-04-19T09:36:42.856Z,17.60
2023-04-19T09:39:12.080Z,22.23
2023-04-19T09:41:53.668Z,17.63
2023-04-19T09:46:54.148Z,15.00
2023-04-19T09:49:37.581Z,15.93
2023-04-19T09:52:15.402Z,25.27
2023-04-19T09:54:44.297Z,11.77
2023-04-19T09:57:14.312Z,15.10
2023-04-19T09:59:42.768Z,17.73
2023-04-19T10:02:13.685Z,17.13
2023-04-19T10:04:59.582Z,20.37
2023-04-19T10:07:34.336Z,14.70
2023-04-19T10:10:16.149Z,16.60
2023-04-19T10:13:15.286Z,19.83
2023-04-19T10:15:51.341Z,19.57
2023-04-19T10:18:24.716Z,19.63
2023-04-19T10:21:00.135Z,18.83
2023-04-19T10:23:30.000Z,15.17
2023-04-19T10:25:59.566Z,20.43
2023-04-19T10:28:31.107Z,17.20
2023-04-19T10:31:03.683Z,17.90
2023-04-19T10:33:35.974Z,16.33
2023-04-19T10:36:09.569Z,16.00
2023-04-19T10:38:40.165Z,14.60
2023-04-19T10:41:16.960Z,18.73
2023-04-19T10:43:49.120Z,16.97
2023-04-19T10:46:37.430Z,17.00
2023-04-19T10:49:07.921Z,16.63
2023-04-19T10:51:38.604Z,15.20
2023-04-19T10:54:08.492Z,16.23
2023-04-19T10:57:00.463Z,20.83
2023-04-19T10:59:32.416Z,17.53
2023-04-19T11:02:03.252Z,17.70
2023-04-19T11:05:01.191Z,17.80
2023-04-19T11:07:37.365Z,15.57
2023-04-19T11:10:06.718Z,17.27
2023-04-19T11:12:36.116Z,16.63
2023-04-19T11:15:09.531Z,13.53
2023-04-19T11:17:39.556Z,25.10
2023-04-19T11:20:10.908Z,16.63
2023-04-19T11:22:41.028Z,12.90
2023-04-19T11:25:12.124Z,14.60
2023-04-19T11:27:41.538Z,13.80
2023-04-19T11:30:13.976Z,13.97
2023-04-19T11:32:49.180Z,14.03
2023-04-19T11:35:20.973Z,12.37
2023-04-19T11:37:49.454Z,15.10
2023-04-19T11:40:18.755Z,13.13
2023-04-19T11:42:47.777Z,14.73
2023-04-19T11:45:31.201Z,13.20
2023-04-19T11:48:01.303Z,11.57
2023-04-19T11:50:34.664Z,12.77
2023-04-19T11:53:12.441Z,14.40
2023-04-19T11:55:44.036Z,15.20
2023-04-19T11:58:29.264Z,12.63
2023-04-19T12:01:04.495Z,16.13
2023-04-19T12:03:33.219Z,11.90
2023-04-19T12:06:06.105Z,15.80
2023-04-19T12:08:36.329Z,11.13
2023-04-19T12:11:09.101Z,11.63
2023-04-19T12:13:38.609Z,10.87
2023-04-19T12:16:09.597Z,11.67
2023-04-19T12:18:49.798Z,11.20
2023-04-19T12:21:28.406Z,15.43
2023-04-19T12:23:58.264Z,11.57
2023-04-19T12:26:28.318Z,11.10
2023-04-19T12:28:57.148Z,6.43
2023-04-19T12:31:27.260Z,5.10
2023-04-19T12:33:55.932Z,5.80
2023-04-19T12:36:24.315Z,6.07
2023-04-19T12:38:52.839Z,7.33
2023-04-19T12:41:21.269Z,10.93
2023-04-19T12:43:50.964Z,9.50
2023-04-19T12:46:19.567Z,11.10
2023-04-19T12:48:49.357Z,11.30
2023-04-19T12:51:17.678Z,10.03
2023-04-19T12:53:49.144Z,9.57
2023-04-19T12:56:17.992Z,10.67
2023-04-19T12:58:46.603Z,9.10
2023-04-19T13:01:17.676Z,10.87
2023-04-19T13:03:46.337Z,11.53
2023-04-19T13:06:17.268Z,11.43
2023-04-19T13:08:47.721Z,11.07
2023-04-19T13:11:22.989Z,13.30
2023-04-19T13:13:53.587Z,13.73
2023-04-19T13:16:22.689Z,9.77
2023-04-19T13:18:52.663Z,10.67
2023-04-19T13:21:23.581Z,6.63
2023-04-19T13:23:52.476Z,4.60
2023-04-19T13:26:20.945Z,6.20
2023-04-19T13:28:49.355Z,4.93
2023-04-19T13:31:17.912Z,5.77
2023-04-19T13:33:46.436Z,6.27
2023-04-19T13:36:15.137Z,5.23
2023-04-19T13:38:45.138Z,5.23
2023-04-19T13:41:13.584Z,7.00
2023-04-19T13:43:42.096Z,6.37
2023-04-19T13:46:10.586Z,5.60
2023-04-19T13:48:38.997Z,6.33
2023-04-19T13:51:08.530Z,6.33
2023-04-19T13:53:36.894Z,4.83
2023-04-19T13:56:09.354Z,4.43
2023-04-19T13:58:37.820Z,6.53
2023-04-19T14:01:08.868Z,4.70
2023-04-19T14:03:37.698Z,4.63
2023-04-19T14:06:07.248Z,6.07
2023-04-19T14:08:35.577Z,6.30
2023-04-19T14:11:04.133Z,9.50
2023-04-19T14:13:33.895Z,5.87
2023-04-19T14:16:02.303Z,7.60
2023-04-19T14:18:30.906Z,9.83
2023-04-19T14:21:00.745Z,5.87
2023-04-19T14:23:28.973Z,6.00
2023-04-19T14:25:57.358Z,6.37
2023-04-19T14:28:26.123Z,5.30
2023-04-19T14:30:56.018Z,4.57
2023-04-19T14:33:25.368Z,4.57
2023-04-19T14:35:54.121Z,4.73
2023-04-19T14:38:22.522Z,6.43
2023-04-19T14:40:51.226Z,45.03
2023-04-19T14:43:19.738Z,6.57
2023-04-19T14:45:49.848Z,4.10
2023-04-19T14:48:22.096Z,4.37
2023-04-19T14:50:51.073Z,4.17
2023-04-19T14:53:19.552Z,4.13
2023-04-19T14:55:47.956Z,4.40
2023-04-19T14:58:16.381Z,4.43
2023-04-19T15:00:45.669Z,4.23
2023-04-19T15:03:14.382Z,6.70
2023-04-19T15:05:44.562Z,8.47
2023-04-19T15:08:28.976Z,18.10
2023-04-19T15:10:59.169Z,21.13
2023-04-19T15:13:27.532Z,20.43
2023-04-19T15:15:56.248Z,17.17
2023-04-19T15:18:24.727Z,9.00
2023-04-19T15:20:54.519Z,4.43
2023-04-19T15:23:25.578Z,8.23
2023-04-19T15:25:54.127Z,4.73
2023-04-19T15:28:24.676Z,3.73
2023-04-19T15:30:59.654Z,3.07
2023-04-19T15:33:28.295Z,2.83
2023-04-19T15:35:58.754Z,4.03
2023-04-19T15:38:29.446Z,3.20
2023-04-19T15:40:59.906Z,4.23
2023-04-19T15:43:28.386Z,2.60
2023-04-19T15:45:56.876Z,2.73
2023-04-19T15:48:25.517Z,2.57
2023-04-19T15:50:53.897Z,2.03
2023-04-19T15:53:23.922Z,2.80
2023-04-19T15:55:52.913Z,2.03
2023-04-19T15:58:23.961Z,1.60
2023-04-19T16:00:52.385Z,1.50
2023-04-19T16:03:21.048Z,1.10
2023-04-19T16:05:51.706Z,0.87
2023-04-19T16:08:20.750Z,1.70
2023-04-19T16:10:51.039Z,2.80
2023-04-19T16:13:19.586Z,6.40
2023-04-19T16:15:48.049Z,13.57
2023-04-19T16:18:16.740Z,13.37
2023-04-19T16:20:45.193Z,14.07
2023-04-19T16:23:14.515Z,14.47
2023-04-19T16:25:53.374Z,21.13
2023-04-19T16:28:22.678Z,4.00
2023-04-19T16:30:51.099Z,3.27
2023-04-19T16:33:19.686Z,2.10
2023-04-19T16:35:48.110Z,2.50
2023-04-19T16:38:16.473Z,3.57
2023-04-19T16:40:47.835Z,3.80
2023-04-19T16:43:17.720Z,3.83
2023-04-19T16:45:46.070Z,2.93
2023-04-19T16:48:14.685Z,2.77
2023-04-19T16:50:43.118Z,2.50
2023-04-19T16:53:13.081Z,2.90
2023-04-19T16:55:41.611Z,2.93
2023-04-19T16:58:11.174Z,4.13
2023-04-19T17:00:41.020Z,5.80
2023-04-19T17:03:12.005Z,5.17
2023-04-19T17:05:40.756Z,4.43
2023-04-19T17:08:11.939Z,3.87
2023-04-19T17:10:40.686Z,2.70
2023-04-19T17:13:13.867Z,3.30
2023-04-19T17:15:43.976Z,4.40
2023-04-19T17:18:12.523Z,3.50
2023-04-19T17:20:41.024Z,3.43
2023-04-19T17:23:10.895Z,4.63
2023-04-19T17:25:39.345Z,4.30
2023-04-19T17:28:10.274Z,3.20
2023-04-19T17:30:38.953Z,4.80
2023-04-19T17:33:10.248Z,4.37
2023-04-19T17:35:38.733Z,4.80
2023-04-19T17:38:07.165Z,6.00
2023-04-19T17:40:35.587Z,4.40
2023-04-19T17:43:04.017Z,3.33
2023-04-19T17:45:32.389Z,8.53
2023-04-19T17:48:02.252Z,28.60
2023-04-19T17:50:32.146Z,44.87
2023-04-19T17:53:00.608Z,4.53
2023-04-19T17:55:28.995Z,2.77
2023-04-19T17:57:57.415Z,2.67
2023-04-19T18:00:25.900Z,5.43
2023-04-19T18:02:54.563Z,4.10
2023-04-19T18:05:23.292Z,3.77
2023-04-19T18:07:53.136Z,3.30
2023-04-19T18:10:22.130Z,4.00
2023-04-19T18:12:50.737Z,3.07
2023-04-19T18:15:19.151Z,3.17
2023-04-19T18:17:47.528Z,2.93
2023-04-19T18:20:16.228Z,3.20
2023-04-19T18:22:44.638Z,3.23
2023-04-19T18:25:14.624Z,6.13
2023-04-19T18:27:43.078Z,4.50
2023-04-19T18:30:12.433Z,4.57
2023-04-19T18:32:40.819Z,4.57
2023-04-19T18:35:12.370Z,4.97
2023-04-19T18:37:41.721Z,1.83
2023-04-19T18:40:12.624Z,2.07
2023-04-19T18:42:46.742Z,1.33
2023-04-19T18:45:17.025Z,1.17
2023-04-19T18:47:45.531Z,2.43
2023-04-19T18:50:18.068Z,3.63
2023-04-19T18:52:47.726Z,3.57
2023-04-19T18:55:16.176Z,5.47
2023-04-19T18:57:45.952Z,6.40
2023-04-19T19:00:15.117Z,5.63
2023-04-19T19:02:48.869Z,7.10
2023-04-19T19:05:17.641Z,3.87
2023-04-19T19:07:46.362Z,3.27
2023-04-19T19:10:19.008Z,2.30
2023-04-19T19:12:51.354Z,3.70
2023-04-19T19:15:20.138Z,1.57
2023-04-19T19:17:50.728Z,0.90
2023-04-19T19:20:20.593Z,0.70
2023-04-19T19:22:49.361Z,1.57
2023-04-19T19:25:17.932Z,0.70
2023-04-19T19:28:05.720Z,1.10
2023-04-19T19:30:40.018Z,1.50
2023-04-19T19:33:08.791Z,1.80
2023-04-19T19:35:40.822Z,6.87
2023-04-19T19:38:14.466Z,2.70
2023-04-19T19:41:17.751Z,6.70
2023-04-19T19:43:31.195Z,4.63
2023-04-19T19:46:01.459Z,4.53
2023-04-19T19:48:30.499Z,3.40
2023-04-19T19:51:17.396Z,4.53
2023-04-19T19:53:47.533Z,5.87
2023-04-19T19:56:21.775Z,2.80
2023-04-19T19:58:51.994Z,3.03
2023-04-19T20:01:23.138Z,5.23
2023-04-19T20:03:52.105Z,3.40
2023-04-19T20:08:52.800Z,2.77
2023-04-19T20:11:21.324Z,3.23
2023-04-19T20:13:50.666Z,2.73
2023-04-19T20:16:19.844Z,2.80
2023-04-19T20:18:50.140Z,3.03
2023-04-19T20:21:19.573Z,2.23
2023-04-19T20:23:48.148Z,2.30
2023-04-19T20:26:16.578Z,2.57
2023-04-19T20:28:44.980Z,1.87
2023-04-19T20:31:14.090Z,3.73
2023-04-19T20:33:43.065Z,2.60
2023-04-19T20:36:16.400Z,2.47
2023-04-19T20:38:46.162Z,3.93
2023-04-19T20:41:25.393Z,3.03
2023-04-19T20:43:56.953Z,3.00
2023-04-19T20:46:26.083Z,2.73
2023-04-19T20:48:54.583Z,2.90
2023-04-19T20:51:24.379Z,3.00
2023-04-19T20:53:52.770Z,3.33
2023-04-19T20:56:21.612Z,2.50
2023-04-19T20:58:50.077Z,2.93
2023-04-19T21:01:18.561Z,4.07
2023-04-19T21:03:47.507Z,3.50
2023-04-19T21:06:16.167Z,2.37
2023-04-19T21:08:46.146Z,2.23
2023-04-19T21:11:14.558Z,2.63
2023-04-19T21:13:42.881Z,2.60
2023-04-19T21:16:13.074Z,2.97
2023-04-19T21:18:41.514Z,3.10
2023-04-19T21:21:09.918Z,3.10
2023-04-19T21:23:43.264Z,3.13
2023-04-19T21:26:15.196Z,3.63
2023-04-19T21:28:43.568Z,2.87
2023-04-19T21:31:14.930Z,2.57
2023-04-19T21:33:43.355Z,2.60
2023-04-19T21:36:13.515Z,2.47
2023-04-19T21:38:41.931Z,2.60
2023-04-19T21:41:12.275Z,2.63
2023-04-19T21:43:42.012Z,2.60
2023-04-19T21:46:11.069Z,4.17
2023-04-19T21:48:39.620Z,3.93
2023-04-19T21:51:08.172Z,3.83
2023-04-19T21:53:36.554Z,5.83
2023-04-19T21:56:05.274Z,3.60
2023-04-19T21:58:33.750Z,5.63
2023-04-19T22:01:03.551Z,6.53
2023-04-19T22:03:32.784Z,4.07
2023-04-19T22:06:02.270Z,4.87
2023-04-19T22:08:32.917Z,3.37
2023-04-19T22:11:08.330Z,5.33
2023-04-19T22:13:37.394Z,4.43
2023-04-19T22:16:08.223Z,4.57
2023-04-19T22:18:36.715Z,4.13
2023-04-19T22:21:06.383Z,4.97
2023-04-19T22:23:34.740Z,4.63
2023-04-19T22:26:03.209Z,3.97
2023-04-19T22:28:31.594Z,4.10
2023-04-19T22:31:00.007Z,4.50
2023-04-19T22:33:29.724Z,5.13
2023-04-19T22:35:58.161Z,4.73
2023-04-19T22:38:26.539Z,3.90
2023-04-19T22:40:55.021Z,6.47
2023-04-19T22:43:23.389Z,4.57
2023-04-19T22:45:51.841Z,4.30
2023-04-19T22:48:20.210Z,4.20
2023-04-19T22:50:50.377Z,4.87
2023-04-19T22:53:18.717Z,4.67
2023-04-19T22:55:47.321Z,4.37
2023-04-19T22:58:15.834Z,4.67
2023-04-19T23:00:44.215Z,5.53
2023-04-19T23:03:18.419Z,5.67
2023-04-19T23:05:47.261Z,5.07
2023-04-19T23:08:17.579Z,4.33
2023-04-19T23:10:45.970Z,4.30
2023-04-19T23:13:15.847Z,5.30
2023-04-19T23:15:44.581Z,4.03
2023-04-19T23:18:14.326Z,4.70
2023-04-19T23:20:43.052Z,5.33
2023-04-19T23:23:11.402Z,4.83
2023-04-19T23:25:41.161Z,4.57
2023-04-19T23:28:11.962Z,5.67
2023-04-19T23:30:41.114Z,4.57
2023-04-19T23:33:09.465Z,4.37
2023-04-19T23:35:37.842Z,4.60
2023-04-19T23:38:14.627Z,5.93
2023-04-19T23:40:44.367Z,5.40
2023-04-19T23:43:13.278Z,6.27
2023-04-19T23:45:41.704Z,5.23
2023-04-19T23:48:10.037Z,5.10
2023-04-19T23:50:38.351Z,5.03
2023-04-19T23:53:07.249Z,5.33
2023-04-19T23:55:35.628Z,6.10
2023-04-19T23:58:05.475Z,6.03
